createdAt,value
2023-03-15T00:04:10.315Z,37.79461
2023-03-15T00:09:11.944Z,38.22412
2023-03-15T00:14:13.605Z,40.76693
2023-03-15T00:19:15.261Z,41.98209
2023-03-15T00:24:16.874Z,43.88624
2023-03-15T00:29:18.523Z,42.19341
2023-03-15T00:34:20.325Z,44.11903
2023-03-15T00:39:21.972Z,45.42342
2023-03-15T00:44:23.653Z,45.23145
2023-03-15T00:49:25.358Z,45.41418
2023-03-15T00:54:26.990Z,45.2916
2023-03-15T00:59:28.696Z,45.61276
2023-03-15T01:04:30.299Z,46.40741
2023-03-15T01:09:32.029Z,47.06969
2023-03-15T01:14:33.701Z,48.02915
2023-03-15T01:19:35.330Z,47.6335
2023-03-15T01:24:37.037Z,46.22822
2023-03-15T01:29:38.728Z,46.86394
2023-03-15T01:34:40.320Z,46.90835
2023-03-15T01:39:42.177Z,46.8625
2023-03-15T01:44:43.810Z,47.87241
2023-03-15T01:49:45.506Z,48.16597
2023-03-15T01:54:47.144Z,51.00222
2023-03-15T01:59:48.890Z,50.99866
2023-03-15T02:04:50.729Z,53.42648
2023-03-15T02:09:52.334Z,51.72125
2023-03-15T02:14:54.023Z,51.32503
2023-03-15T02:19:55.638Z,53.7973
2023-03-15T02:24:57.273Z,57.21258
2023-03-15T02:29:58.882Z,55.86932
2023-03-15T02:35:00.558Z,56.29215
2023-03-15T02:40:02.222Z,53.16286
2023-03-15T02:45:03.863Z,54.31714
2023-03-15T02:50:05.726Z,53.01816
2023-03-15T02:55:07.395Z,56.24746
2023-03-15T03:00:09.020Z,56.40247
2023-03-15T03:05:10.666Z,56.58878
2023-03-15T03:10:12.416Z,59.2163
2023-03-15T03:15:14.081Z,56.44408
2023-03-15T03:20:15.731Z,56.84203
2023-03-15T03:25:17.362Z,58.95508
2023-03-15T03:30:19.013Z,59.1003
2023-03-15T03:35:20.648Z,57.79166
2023-03-15T03:40:22.379Z,58.40792
2023-03-15T03:45:24.010Z,57.28815
2023-03-15T03:50:25.730Z,57.4047
2023-03-15T03:55:27.357Z,60.11806
2023-03-15T04:00:28.968Z,58.61161
2023-03-15T04:05:30.645Z,60.03141
2023-03-15T04:10:32.253Z,60.49679
2023-03-15T04:15:33.914Z,59.98651
2023-03-15T04:20:35.746Z,60.28189
2023-03-15T04:25:37.371Z,58.27322
2023-03-15T04:30:39.082Z,61.41782
2023-03-15T04:35:40.751Z,61.11014
2023-03-15T04:40:42.379Z,60.39756
2023-03-15T04:45:43.991Z,60.71356
2023-03-15T04:50:45.591Z,60.19615
2023-03-15T04:55:47.236Z,59.1747
2023-03-15T05:00:48.930Z,63.16347
2023-03-15T05:05:50.651Z,61.72159
2023-03-15T05:10:52.306Z,60.86554
2023-03-15T05:15:53.971Z,59.41639
2023-03-15T05:20:55.594Z,61.26165
2023-03-15T05:25:57.216Z,61.46305
2023-03-15T05:31:00.565Z,60.36407
2023-03-15T05:36:02.420Z,64.1944
2023-03-15T05:41:04.110Z,62.43381
2023-03-15T05:46:05.741Z,61.20118
2023-03-15T05:51:07.583Z,61.94749
2023-03-15T05:56:09.210Z,61.24902
2023-03-15T06:01:10.989Z,62.12685
2023-03-15T06:06:12.589Z,62.14501
2023-03-15T06:11:14.216Z,62.99527
2023-03-15T06:16:15.917Z,62.62156
2023-03-15T06:21:17.676Z,61.30223
2023-03-15T06:26:19.342Z,62.52415
2023-03-15T06:31:21.048Z,64.25233
2023-03-15T06:36:22.705Z,63.664
2023-03-15T06:41:24.393Z,63.39676
2023-03-15T06:46:26.073Z,63.15622
2023-03-15T06:51:27.721Z,67.76246
2023-03-15T06:56:29.305Z,64.13631
2023-03-15T07:01:31.059Z,66.52804
2023-03-15T07:06:32.739Z,66.34182
2023-03-15T07:11:34.336Z,66.42654
2023-03-15T07:16:35.943Z,66.79828
2023-03-15T07:21:37.576Z,65.42474
2023-03-15T07:26:39.391Z,65.10122
2023-03-15T07:31:41.059Z,66.062
2023-03-15T07:36:42.705Z,63.36587
2023-03-15T07:41:44.361Z,63.97971
2023-03-15T07:46:46.000Z,63.90022
2023-03-15T07:51:47.712Z,62.06577
2023-03-15T07:56:49.319Z,65.05777
2023-03-15T08:01:51.118Z,63.14236
2023-03-15T08:06:52.777Z,63.77593
2023-03-15T08:11:54.408Z,64.26752
2023-03-15T08:16:56.021Z,63.9885
2023-03-15T08:21:57.700Z,64.85407
2023-03-15T08:26:59.274Z,63.973
2023-03-15T08:32:01.009Z,62.86858
2023-03-15T08:37:02.683Z,63.61482
2023-03-15T08:42:04.429Z,63.49072
2023-03-15T08:47:06.065Z,65.52308
2023-03-15T08:52:07.685Z,61.72699
2023-03-15T08:57:09.308Z,62.27553
2023-03-15T09:02:11.007Z,63.3571
2023-03-15T09:07:12.714Z,65.46504
2023-03-15T09:12:14.440Z,63.67801
2023-03-15T09:17:16.183Z,64.45682
2023-03-15T09:22:34.851Z,64.94476
2023-03-15T09:27:39.994Z,66.10786
2023-03-15T09:32:41.728Z,62.68674
2023-03-15T09:37:43.366Z,65.70305
2023-03-15T09:42:45.006Z,63.87063
2023-03-15T09:47:46.685Z,65.37143
2023-03-15T09:52:48.344Z,65.31237
2023-03-15T09:57:49.957Z,64.95738
2023-03-15T10:02:51.583Z,65.05153
2023-03-15T10:07:53.208Z,62.99009
2023-03-15T10:12:54.901Z,65.79225
2023-03-15T10:17:56.579Z,66.17295
2023-03-15T10:22:58.238Z,68.43563
2023-03-15T10:27:59.836Z,67.65444
2023-03-15T10:33:01.593Z,70.55557
2023-03-15T10:38:03.280Z,67.96308
2023-03-15T10:43:04.911Z,68.54831
2023-03-15T10:48:06.577Z,68.0331
2023-03-15T10:53:08.172Z,67.55521
2023-03-15T10:58:09.802Z,66.77107
2023-03-15T11:03:11.430Z,69.09804
2023-03-15T11:08:13.128Z,66.77809
2023-03-15T11:13:14.784Z,67.79512
2023-03-15T11:18:16.415Z,66.09247
2023-03-15T11:23:18.010Z,69.03056
2023-03-15T11:28:19.649Z,71.50265
2023-03-15T11:33:21.286Z,69.17524
2023-03-15T11:38:22.904Z,72.83885
2023-03-15T11:43:24.629Z,74.98806
2023-03-15T11:48:26.253Z,72.30211
2023-03-15T11:53:27.910Z,70.34352
2023-03-15T11:58:29.555Z,70.89722
2023-03-15T12:03:31.190Z,67.85083
2023-03-15T12:08:32.855Z,68.62363
2023-03-15T12:13:34.495Z,68.26907
2023-03-15T12:18:36.116Z,68.64718
2023-03-15T12:23:37.808Z,65.69006
2023-03-15T12:28:39.700Z,67.77314
2023-03-15T12:33:41.334Z,68.51158
2023-03-15T12:38:42.940Z,67.52029
2023-03-15T12:43:44.574Z,68.45844
2023-03-15T12:48:46.293Z,68.87177
2023-03-15T12:53:47.916Z,71.30915
2023-03-15T12:58:49.559Z,69.7748
2023-03-15T13:03:51.201Z,69.75864
2023-03-15T13:08:52.978Z,69.58893
2023-03-15T13:13:54.654Z,70.46877
2023-03-15T13:18:56.312Z,67.88161
2023-03-15T13:23:57.904Z,69.64255
2023-03-15T13:28:59.568Z,69.48057
2023-03-15T13:34:01.218Z,66.44423
2023-03-15T13:39:02.849Z,68.05418
2023-03-15T13:44:04.439Z,67.36028
2023-03-15T13:49:06.054Z,68.07749
2023-03-15T13:54:07.690Z,68.30392
2023-03-15T13:59:09.331Z,68.41182
2023-03-15T14:04:10.920Z,72.4355
2023-03-15T14:09:12.626Z,71.13398
2023-03-15T14:14:14.285Z,72.70143
2023-03-15T14:19:16.197Z,69.5096
2023-03-15T14:24:17.818Z,69.27601
2023-03-15T14:29:19.482Z,69.93631
2023-03-15T14:34:21.304Z,68.56738
2023-03-15T14:39:22.904Z,67.77788
2023-03-15T14:44:24.542Z,69.00894
2023-03-15T14:49:26.347Z,72.94694
2023-03-15T14:54:27.991Z,71.82646
2023-03-15T14:59:29.597Z,67.48366
2023-03-15T15:04:31.198Z,68.65825
2023-03-15T15:09:33.027Z,69.04346
2023-03-15T15:14:34.686Z,67.39298
2023-03-15T15:19:36.293Z,67.70567
2023-03-15T15:24:38.031Z,67.36202
2023-03-15T15:29:39.617Z,65.43248
2023-03-15T15:34:41.229Z,63.34419
2023-03-15T15:39:42.913Z,63.11278
2023-03-15T15:44:44.522Z,64.21072
2023-03-15T15:49:46.344Z,63.84666
2023-03-15T15:54:47.938Z,63.64826
2023-03-15T15:59:49.532Z,63.05965
2023-03-15T16:04:51.149Z,61.78269
2023-03-15T16:09:54.550Z,61.5035
2023-03-15T16:14:57.264Z,62.97814
2023-03-15T16:19:58.859Z,59.04201
2023-03-15T16:25:00.831Z,60.05444
2023-03-15T16:30:02.518Z,59.77491
2023-03-15T16:35:04.146Z,59.08768
2023-03-15T16:40:05.788Z,57.98993
2023-03-15T16:45:07.327Z,59.20566
2023-03-15T16:50:08.980Z,57.80652
2023-03-15T16:55:10.762Z,56.12532
2023-03-15T17:00:12.470Z,57.94583
2023-03-15T17:05:14.063Z,56.79473
2023-03-15T17:10:15.850Z,57.26339
2023-03-15T17:15:17.487Z,60.05208
2023-03-15T17:20:19.231Z,56.24483
2023-03-15T17:25:21.039Z,56.31021
2023-03-15T17:30:22.769Z,56.07625
2023-03-15T17:35:24.429Z,53.94649
2023-03-15T17:40:26.281Z,50.56622
2023-03-15T17:45:27.936Z,53.44977
2023-03-15T17:50:29.584Z,53.60066
2023-03-15T17:55:31.174Z,50.04999
2023-03-15T18:00:32.870Z,50.17438
2023-03-15T18:05:34.525Z,48.37119
2023-03-15T18:10:36.163Z,51.82809
2023-03-15T18:15:37.809Z,49.2908
2023-03-15T18:20:39.472Z,48.88312
2023-03-15T18:25:41.114Z,47.45082
2023-03-15T18:30:42.816Z,49.80968
2023-03-15T18:35:44.520Z,49.51395
2023-03-15T18:40:46.196Z,46.89174
2023-03-15T18:45:47.956Z,48.42287
2023-03-15T18:50:49.643Z,47.48792
2023-03-15T18:55:51.283Z,49.4016
2023-03-15T19:00:53.058Z,47.86092
2023-03-15T19:05:54.673Z,49.11624
2023-03-15T19:10:56.469Z,50.20456
2023-03-15T19:15:58.357Z,46.39083
2023-03-15T19:20:59.987Z,46.59822
2023-03-15T19:26:01.599Z,50.63374
2023-03-15T19:31:03.337Z,49.40855
2023-03-15T19:36:05.006Z,51.02656
2023-03-15T19:41:06.708Z,50.67797
2023-03-15T19:46:08.374Z,50.27608
2023-03-15T19:51:09.988Z,47.41718
2023-03-15T19:56:11.595Z,47.42979
2023-03-15T20:01:13.237Z,44.98712
2023-03-15T20:06:14.903Z,44.64148
2023-03-15T20:11:16.528Z,44.21461
2023-03-15T20:16:18.171Z,44.68092
2023-03-15T20:21:19.943Z,48.56831
2023-03-15T20:26:21.571Z,48.88553
2023-03-15T20:31:23.252Z,48.42254
2023-03-15T20:36:24.956Z,49.9211
2023-03-15T20:41:26.622Z,49.8089
2023-03-15T20:46:28.222Z,48.46256
2023-03-15T20:51:29.955Z,48.19619
2023-03-15T20:56:31.681Z,46.26033
2023-03-15T21:01:33.435Z,43.31797
2023-03-15T21:06:35.042Z,42.73225
2023-03-15T21:11:36.755Z,39.66415
2023-03-15T21:16:38.470Z,39.67916
2023-03-15T21:21:40.157Z,43.33008
2023-03-15T21:26:41.790Z,39.14217
2023-03-15T21:31:43.494Z,42.69056
2023-03-15T21:36:45.129Z,43.73982
2023-03-15T21:41:46.811Z,39.01238
2023-03-15T21:46:48.698Z,38.34345
2023-03-15T21:51:50.510Z,36.49469
2023-03-15T21:56:52.105Z,37.43508
2023-03-15T22:01:53.785Z,35.98656
2023-03-15T22:06:55.385Z,35.29743
2023-03-15T22:11:56.998Z,37.20874
2023-03-15T22:16:58.716Z,40.26427
2023-03-15T22:22:00.464Z,38.7419
2023-03-15T22:27:02.062Z,37.54252
2023-03-15T22:32:03.704Z,41.67306
2023-03-15T22:37:05.375Z,40.15548
2023-03-15T22:42:06.960Z,37.81001
2023-03-15T22:47:08.581Z,34.60443
2023-03-15T22:52:10.216Z,35.34417
2023-03-15T22:57:11.883Z,33.0476
2023-03-15T23:02:13.536Z,31.36249
2023-03-15T23:07:15.259Z,30.91137
2023-03-15T23:12:21.857Z,33.67148
2023-03-15T23:17:26.037Z,36.32277
2023-03-15T23:22:27.859Z,37.46197
2023-03-15T23:27:29.700Z,41.89786
2023-03-15T23:32:31.436Z,41.1598
2023-03-15T23:37:33.083Z,40.21738
2023-03-15T23:42:34.732Z,42.14052
2023-03-15T23:47:36.352Z,40.85496
2023-03-15T23:52:38.140Z,40.20107
2023-03-15T23:57:39.763Z,37.531
